createdAt,value
2018-03-04T00:00:32.565Z,25.63
2018-03-04T00:03:00.141Z,24.70
2018-03-04T00:05:27.836Z,23.30
2018-03-04T00:07:55.538Z,23.20
2018-03-04T00:10:23.164Z,23.50
2018-03-04T00:12:50.797Z,23.80
2018-03-04T00:15:18.454Z,22.60
2018-03-04T00:17:46.104Z,22.00
2018-03-04T00:20:13.720Z,22.67
2018-03-04T00:22:41.716Z,21.37
2018-03-04T00:25:10.404Z,21.47
2018-03-04T00:27:38.121Z,22.47
2018-03-04T00:30:05.750Z,23.00
2018-03-04T00:32:33.372Z,22.67
2018-03-04T00:35:00.954Z,23.13
2018-03-04T00:37:28.593Z,20.77
2018-03-04T00:39:56.200Z,23.07
2018-03-04T00:42:23.787Z,23.53
2018-03-04T00:44:51.409Z,23.90
2018-03-04T00:47:19.629Z,24.73
2018-03-04T00:49:47.276Z,21.97
2018-03-04T00:52:15.155Z,21.67
2018-03-04T00:54:42.790Z,22.40
2018-03-04T00:57:10.563Z,22.43
2018-03-04T00:59:38.176Z,22.00
2018-03-04T01:02:05.827Z,23.60
2018-03-04T01:04:33.409Z,22.13
2018-03-04T01:07:01.010Z,23.60
2018-03-04T01:09:30.012Z,23.60
2018-03-04T01:11:57.594Z,23.53
2018-03-04T01:14:25.183Z,25.50
2018-03-04T01:16:52.781Z,20.70
2018-03-04T01:19:21.245Z,25.70
2018-03-04T01:21:48.817Z,21.90
2018-03-04T01:24:16.416Z,20.00
2018-03-04T01:26:44.002Z,20.63
2018-03-04T01:29:11.638Z,23.27
2018-03-04T01:31:39.232Z,20.17
2018-03-04T01:34:06.924Z,21.47
2018-03-04T01:36:34.532Z,21.10
2018-03-04T01:39:02.122Z,21.60
2018-03-04T01:41:29.905Z,22.97
2018-03-04T01:43:57.574Z,21.20
2018-03-04T01:46:25.152Z,21.50
2018-03-04T01:48:52.711Z,19.57
2018-03-04T01:51:21.506Z,21.07
2018-03-04T01:53:49.478Z,21.73
2018-03-04T01:56:17.088Z,19.83
2018-03-04T01:58:45.702Z,22.67
2018-03-04T02:01:13.347Z,20.67
2018-03-04T02:03:40.938Z,23.00
2018-03-04T02:06:08.622Z,22.90
2018-03-04T02:08:36.325Z,23.77
2018-03-04T02:11:03.977Z,22.17
2018-03-04T02:13:31.605Z,22.40
2018-03-04T02:15:59.741Z,23.40
2018-03-04T02:18:27.559Z,20.77
2018-03-04T02:20:55.423Z,25.23
2018-03-04T02:23:23.101Z,23.30
2018-03-04T02:25:50.782Z,21.80
2018-03-04T02:28:18.352Z,22.87
2018-03-04T02:30:46.146Z,21.40
2018-03-04T02:33:15.286Z,23.73
2018-03-04T02:35:42.856Z,19.07
2018-03-04T02:38:10.535Z,21.13
2018-03-04T02:40:38.163Z,19.63
2018-03-04T02:43:06.099Z,20.97
2018-03-04T02:45:34.090Z,22.80
2018-03-04T02:48:01.718Z,25.30
2018-03-04T02:50:29.343Z,22.30
2018-03-04T02:52:57.001Z,23.07
2018-03-04T02:55:25.832Z,27.37
2018-03-04T02:57:53.462Z,24.13
2018-03-04T03:00:21.085Z,23.93
2018-03-04T03:02:48.702Z,23.17
2018-03-04T03:05:16.275Z,21.67
2018-03-04T03:07:43.941Z,21.00
2018-03-04T03:10:11.747Z,23.60
2018-03-04T03:12:41.090Z,27.23
2018-03-04T03:15:09.393Z,25.47
2018-03-04T03:17:37.467Z,22.87
2018-03-04T03:20:05.077Z,21.20
2018-03-04T03:22:32.666Z,27.33
2018-03-04T03:25:01.002Z,35.80
2018-03-04T03:27:28.690Z,25.63
2018-03-04T03:29:59.305Z,21.87
2018-03-04T03:32:28.998Z,24.47
2018-03-04T03:34:56.791Z,21.40
2018-03-04T03:37:24.391Z,23.70
2018-03-04T03:39:52.013Z,26.03
2018-03-04T03:42:19.652Z,23.70
2018-03-04T03:44:47.256Z,25.43
2018-03-04T03:47:14.929Z,22.33
2018-03-04T03:49:48.452Z,22.20
2018-03-04T03:52:18.474Z,22.83
2018-03-04T03:54:47.016Z,23.97
2018-03-04T03:57:19.271Z,22.10
2018-03-04T03:59:47.391Z,22.73
2018-03-04T04:02:15.034Z,20.27
2018-03-04T04:04:42.788Z,21.07
2018-03-04T04:07:11.136Z,25.97
2018-03-04T04:09:38.764Z,21.83
2018-03-04T04:12:06.360Z,20.10
2018-03-04T04:14:33.965Z,20.77
2018-03-04T04:17:01.604Z,19.40
2018-03-04T04:19:29.925Z,21.07
2018-03-04T04:21:57.642Z,21.73
2018-03-04T04:24:25.558Z,22.87
2018-03-04T04:26:53.144Z,22.40
2018-03-04T04:29:22.511Z,20.03
2018-03-04T04:31:50.177Z,21.10
2018-03-04T04:34:17.789Z,21.83
2018-03-04T04:36:45.682Z,20.60
2018-03-04T04:39:13.333Z,18.90
2018-03-04T04:41:40.910Z,17.53
2018-03-04T04:44:09.770Z,18.10
2018-03-04T04:46:37.437Z,19.57
2018-03-04T04:49:05.383Z,22.70
2018-03-04T04:51:33.012Z,21.83
2018-03-04T04:54:00.618Z,21.70
2018-03-04T04:56:28.221Z,21.00
2018-03-04T04:58:55.850Z,21.20
2018-03-04T05:01:23.461Z,22.33
2018-03-04T05:03:51.038Z,23.43
2018-03-04T05:06:18.872Z,24.23
2018-03-04T05:08:46.484Z,21.70
2018-03-04T05:11:14.638Z,23.13
2018-03-04T05:13:42.337Z,23.10
2018-03-04T05:16:10.058Z,22.10
2018-03-04T05:18:37.638Z,23.57
2018-03-04T05:21:05.741Z,22.63
2018-03-04T05:23:36.384Z,21.03
2018-03-04T05:26:03.989Z,22.00
2018-03-04T05:28:31.584Z,21.60
2018-03-04T05:30:59.177Z,23.60
2018-03-04T05:33:29.250Z,22.60
2018-03-04T05:35:57.004Z,22.60
2018-03-04T05:38:25.005Z,20.77
2018-03-04T05:40:52.608Z,22.90
2018-03-04T05:43:21.152Z,21.07
2018-03-04T05:45:48.752Z,21.87
2018-03-04T05:48:16.347Z,22.53
2018-03-04T05:50:44.029Z,23.73
2018-03-04T05:53:11.887Z,21.67
2018-03-04T05:55:39.474Z,21.43
2018-03-04T05:58:07.087Z,20.73
2018-03-04T06:03:25.649Z,21.47
2018-03-04T06:05:58.052Z,41.63
2018-03-04T06:08:27.060Z,24.73
2018-03-04T06:10:54.675Z,25.70
2018-03-04T06:13:23.689Z,21.20
2018-03-04T06:15:51.294Z,23.13
2018-03-04T06:18:18.895Z,23.20
2018-03-04T06:20:46.444Z,22.50
2018-03-04T06:23:15.003Z,23.50
2018-03-04T06:25:42.684Z,23.83
2018-03-04T06:28:10.371Z,25.93
2018-03-04T06:30:37.952Z,26.27
2018-03-04T06:33:06.225Z,29.23
2018-03-04T06:35:34.123Z,26.20
2018-03-04T06:38:01.745Z,24.53
2018-03-04T06:40:29.421Z,36.63
2018-03-04T06:42:56.999Z,26.67
2018-03-04T06:45:24.575Z,24.17
2018-03-04T06:47:52.177Z,27.70
2018-03-04T06:50:19.767Z,23.87
2018-03-04T06:52:47.348Z,29.57
2018-03-04T06:55:15.019Z,27.10
2018-03-04T06:57:42.611Z,26.80
2018-03-04T07:00:10.201Z,23.00
2018-03-04T07:02:37.802Z,24.30
2018-03-04T07:05:05.406Z,24.00
2018-03-04T07:07:35.887Z,22.03
2018-03-04T07:10:03.663Z,24.20
2018-03-04T07:12:33.444Z,22.43
2018-03-04T07:15:01.027Z,20.90
2018-03-04T07:17:28.639Z,22.80
2018-03-04T07:19:57.317Z,25.10
2018-03-04T07:22:24.871Z,22.43
2018-03-04T07:24:52.467Z,25.07
2018-03-04T07:27:21.849Z,33.77
2018-03-04T07:29:49.473Z,30.43
2018-03-04T07:32:21.348Z,25.60
2018-03-04T07:34:48.934Z,26.10
2018-03-04T07:37:18.217Z,28.27
2018-03-04T07:42:19.748Z,26.70
2018-03-04T07:44:47.346Z,25.23
2018-03-04T07:47:19.032Z,23.80
2018-03-04T07:49:49.724Z,23.30
2018-03-04T07:52:17.293Z,28.70
2018-03-04T07:54:44.873Z,26.00
2018-03-04T07:57:13.924Z,27.97
2018-03-04T07:59:42.970Z,26.03
2018-03-04T08:02:11.654Z,25.70
2018-03-04T08:04:39.265Z,25.07
2018-03-04T08:07:07.197Z,28.17
2018-03-04T08:09:35.152Z,28.77
2018-03-04T08:12:02.776Z,27.53
2018-03-04T08:14:30.345Z,27.53
2018-03-04T08:16:58.026Z,26.37
2018-03-04T08:19:25.674Z,28.77
2018-03-04T08:21:53.255Z,27.97
2018-03-04T08:24:32.770Z,30.50
2018-03-04T08:27:12.504Z,32.63
2018-03-04T08:29:40.110Z,33.17
2018-03-04T08:32:07.735Z,33.83
2018-03-04T08:34:35.440Z,30.63
2018-03-04T08:37:03.049Z,29.17
2018-03-04T08:39:31.486Z,29.40
2018-03-04T08:41:59.821Z,30.20
2018-03-04T08:44:28.493Z,29.83
2018-03-04T08:46:59.729Z,33.50
2018-03-04T08:49:27.396Z,32.53
2018-03-04T08:51:54.971Z,31.43
2018-03-04T08:54:22.906Z,32.10
2018-03-04T08:56:50.523Z,31.30
2018-03-04T08:59:18.316Z,33.20
2018-03-04T09:01:48.575Z,30.90
2018-03-04T09:04:16.194Z,30.77
2018-03-04T09:06:43.765Z,29.47
2018-03-04T09:09:11.760Z,29.53
2018-03-04T09:11:39.337Z,26.23
2018-03-04T09:14:06.955Z,25.80
2018-03-04T09:16:34.767Z,28.07
2018-03-04T09:19:02.344Z,29.37
2018-03-04T09:21:30.560Z,27.43
2018-03-04T09:23:58.517Z,31.40
2018-03-04T09:26:26.097Z,32.80
2018-03-04T09:28:53.762Z,31.60
2018-03-04T09:31:23.060Z,29.07
2018-03-04T09:33:50.648Z,28.67
2018-03-04T09:36:18.199Z,31.20
2018-03-04T09:38:45.801Z,25.10
2018-03-04T09:41:13.436Z,26.40
2018-03-04T09:43:41.051Z,28.20
2018-03-04T09:46:08.612Z,28.50
2018-03-04T09:48:36.189Z,30.70
2018-03-04T09:51:03.812Z,36.47
2018-03-04T09:53:32.076Z,31.00
2018-03-04T09:55:59.715Z,30.37
2018-03-04T09:58:27.298Z,29.00
2018-03-04T10:00:54.902Z,29.57
2018-03-04T10:03:22.569Z,25.87
2018-03-04T10:05:50.992Z,30.10
2018-03-04T10:08:18.582Z,31.07
2018-03-04T10:10:46.205Z,28.47
2018-03-04T10:13:13.783Z,32.73
2018-03-04T10:15:42.170Z,32.47
2018-03-04T10:18:10.113Z,32.00
2018-03-04T10:20:37.671Z,32.77
2018-03-04T10:23:05.650Z,31.90
2018-03-04T10:25:35.987Z,32.43
2018-03-04T10:28:03.751Z,30.20
2018-03-04T10:30:32.818Z,30.70
2018-03-04T10:33:00.364Z,30.20
2018-03-04T10:35:27.928Z,29.20
2018-03-04T10:37:55.498Z,34.50
2018-03-04T10:40:23.238Z,37.90
2018-03-04T10:42:50.812Z,39.23
2018-03-04T10:45:19.078Z,50.70
2018-03-04T10:47:46.690Z,34.30
2018-03-04T10:50:14.695Z,33.07
2018-03-04T10:52:42.404Z,31.70
2018-03-04T10:55:10.440Z,32.90
2018-03-04T10:57:38.114Z,31.50
2018-03-04T11:00:05.849Z,28.90
2018-03-04T11:02:38.055Z,32.07
2018-03-04T11:05:05.986Z,32.97
2018-03-04T11:07:33.574Z,32.13
2018-03-04T11:10:01.160Z,29.00
2018-03-04T11:12:28.709Z,32.93
2018-03-04T11:14:56.309Z,36.70
2018-03-04T11:17:25.932Z,30.60
2018-03-04T11:19:53.680Z,32.50
2018-03-04T11:22:21.264Z,32.17
2018-03-04T11:24:48.834Z,32.00
2018-03-04T11:27:17.487Z,32.10
2018-03-04T11:29:45.174Z,31.80
2018-03-04T11:32:12.826Z,33.97
2018-03-04T11:34:42.268Z,34.70
2018-03-04T11:37:10.678Z,33.50
2018-03-04T11:39:38.431Z,31.20
2018-03-04T11:42:06.106Z,31.23
2018-03-04T11:44:34.996Z,30.10
2018-03-04T11:47:02.665Z,31.53
2018-03-04T11:49:30.241Z,32.37
2018-03-04T11:51:58.242Z,33.23
2018-03-04T11:54:25.915Z,31.23
2018-03-04T11:56:53.507Z,32.40
2018-03-04T11:59:21.137Z,30.70
2018-03-04T12:01:49.530Z,30.93
2018-03-04T12:04:17.345Z,30.90
2018-03-04T12:06:45.035Z,31.93
2018-03-04T12:09:13.127Z,29.83
2018-03-04T12:11:40.743Z,31.70
2018-03-04T12:14:08.384Z,30.93
2018-03-04T12:16:35.949Z,30.57
2018-03-04T12:19:03.552Z,32.03
2018-03-04T12:21:33.574Z,32.97
2018-03-04T12:24:01.308Z,33.30
2018-03-04T12:26:28.949Z,33.63
2018-03-04T12:28:56.571Z,31.57
2018-03-04T12:31:24.182Z,32.70
2018-03-04T12:33:51.789Z,31.70
2018-03-04T12:36:19.416Z,31.43
2018-03-04T12:38:47.055Z,31.43
2018-03-04T12:41:14.656Z,35.83
2018-03-04T12:43:42.238Z,36.27
2018-03-04T12:46:10.167Z,31.50
2018-03-04T12:48:37.809Z,32.70
2018-03-04T12:51:05.996Z,32.10
2018-03-04T12:53:33.620Z,33.17
2018-03-04T12:56:01.260Z,34.20
2018-03-04T12:58:28.884Z,34.07
2018-03-04T13:00:56.537Z,33.40
2018-03-04T13:03:24.326Z,32.00
2018-03-04T13:05:51.976Z,31.13
2018-03-04T13:08:19.685Z,32.20
2018-03-04T13:10:47.316Z,32.93
2018-03-04T13:13:14.919Z,30.90
2018-03-04T13:15:43.390Z,32.80
2018-03-04T13:18:12.666Z,30.67
2018-03-04T13:20:40.285Z,33.73
2018-03-04T13:23:08.407Z,35.20
2018-03-04T13:25:36.485Z,35.43
2018-03-04T13:28:04.071Z,32.77
2018-03-04T13:30:32.731Z,31.70
2018-03-04T13:33:00.430Z,34.40
2018-03-04T13:35:28.809Z,31.67
2018-03-04T13:37:56.373Z,35.60
2018-03-04T13:40:23.938Z,32.93
2018-03-04T13:42:51.851Z,34.83
2018-03-04T13:45:21.112Z,38.40
2018-03-04T13:47:48.875Z,38.60
2018-03-04T13:50:16.504Z,38.57
2018-03-04T13:52:44.266Z,37.63
2018-03-04T13:55:12.262Z,42.73
2018-03-04T13:57:39.962Z,34.40
2018-03-04T14:00:07.568Z,39.47
2018-03-04T14:02:35.240Z,37.33
2018-03-04T14:05:02.846Z,38.83
2018-03-04T14:07:32.595Z,39.83
2018-03-04T14:10:00.195Z,35.90
2018-03-04T14:12:27.789Z,37.50
2018-03-04T14:14:55.369Z,37.43
2018-03-04T14:17:24.117Z,37.83
2018-03-04T14:19:51.734Z,35.20
2018-03-04T14:22:19.726Z,34.77
2018-03-04T14:24:47.308Z,36.00
2018-03-04T14:27:14.937Z,36.80
2018-03-04T14:29:42.530Z,36.30
2018-03-04T14:32:10.293Z,33.87
2018-03-04T14:34:37.911Z,37.50
2018-03-04T14:37:05.858Z,34.47
2018-03-04T14:39:33.738Z,38.80
2018-03-04T14:42:01.330Z,39.27
2018-03-04T14:44:28.905Z,39.53
2018-03-04T14:46:56.533Z,40.57
2018-03-04T14:49:24.819Z,35.93
2018-03-04T14:51:52.949Z,36.50
2018-03-04T14:54:20.621Z,37.43
2018-03-04T14:56:48.493Z,35.17
2018-03-04T14:59:16.461Z,35.30
2018-03-04T15:01:46.941Z,35.93
2018-03-04T15:04:14.867Z,37.40
2018-03-04T15:06:42.503Z,34.93
2018-03-04T15:09:12.066Z,36.30
2018-03-04T15:11:48.630Z,34.50
2018-03-04T15:14:16.283Z,36.30
2018-03-04T15:16:44.209Z,36.17
2018-03-04T15:19:12.192Z,38.90
2018-03-04T15:21:39.932Z,37.63
2018-03-04T15:24:08.083Z,36.30
2018-03-04T15:26:37.513Z,36.93
2018-03-04T15:29:05.764Z,38.47
2018-03-04T15:31:33.685Z,38.50
2018-03-04T15:34:01.327Z,36.53
2018-03-04T15:36:29.229Z,37.73
2018-03-04T15:38:56.865Z,37.00
2018-03-04T15:41:33.603Z,40.33
2018-03-04T15:44:01.220Z,40.63
2018-03-04T15:46:32.341Z,38.87
2018-03-04T15:48:59.964Z,38.03
2018-03-04T15:51:27.616Z,40.90
2018-03-04T15:53:55.256Z,40.20
2018-03-04T15:56:23.064Z,40.70
2018-03-04T15:58:55.037Z,40.30
2018-03-04T16:01:24.426Z,40.10
2018-03-04T16:03:52.040Z,39.50
2018-03-04T16:06:19.660Z,40.57
2018-03-04T16:08:47.234Z,42.87
2018-03-04T16:11:15.172Z,41.27
2018-03-04T16:13:42.843Z,41.93
2018-03-04T16:16:10.734Z,38.70
2018-03-04T16:18:38.788Z,43.90
2018-03-04T16:21:06.913Z,46.70
2018-03-04T16:23:34.545Z,40.07
2018-03-04T16:26:02.150Z,36.47
2018-03-04T16:28:29.780Z,41.40
2018-03-04T16:30:57.462Z,42.80
2018-03-04T16:33:32.614Z,41.70
2018-03-04T16:36:00.279Z,35.73
2018-03-04T16:38:28.533Z,35.97
2018-03-04T16:40:56.162Z,34.07
2018-03-04T16:43:24.193Z,33.40
2018-03-04T16:45:51.789Z,36.90
2018-03-04T16:48:19.398Z,39.80
2018-03-04T16:50:47.022Z,36.93
2018-03-04T16:53:14.692Z,36.87
2018-03-04T16:55:42.288Z,33.60
2018-03-04T16:58:09.953Z,36.70
2018-03-04T17:00:37.591Z,41.53
2018-03-04T17:03:05.280Z,36.90
2018-03-04T17:05:32.929Z,37.13
2018-03-04T17:08:00.542Z,39.40
2018-03-04T17:10:28.209Z,36.67
2018-03-04T17:12:55.899Z,38.70
2018-03-04T17:15:23.751Z,38.03
2018-03-04T17:17:51.340Z,36.80
2018-03-04T17:20:20.954Z,35.50
2018-03-04T17:22:48.745Z,38.20
2018-03-04T17:25:19.187Z,40.37
2018-03-04T17:27:49.028Z,41.13
2018-03-04T17:32:54.269Z,42.47
2018-03-04T17:35:33.578Z,40.37
2018-03-04T17:38:05.939Z,43.60
2018-03-04T17:40:39.716Z,41.80
2018-03-04T17:48:24.043Z,45.87
2018-03-04T17:51:01.435Z,39.10
2018-03-04T17:53:30.509Z,40.80
2018-03-04T17:56:04.006Z,40.80
2018-03-04T17:58:36.151Z,41.33
2018-03-04T18:03:39.271Z,43.67
2018-03-04T18:08:58.924Z,39.83
2018-03-04T18:11:33.252Z,41.33
2018-03-04T18:14:03.457Z,40.40
2018-03-04T18:16:35.986Z,43.00
2018-03-04T18:21:40.359Z,44.70
2018-03-04T18:24:12.135Z,42.30
2018-03-04T18:27:00.263Z,42.13
2018-03-04T18:29:45.386Z,50.20
2018-03-04T18:32:21.671Z,49.60
2018-03-04T18:34:59.569Z,43.70
2018-03-04T18:42:46.657Z,41.23
2018-03-04T18:45:22.212Z,42.67
2018-03-04T18:50:31.478Z,44.80
2018-03-04T18:53:06.213Z,46.30
2018-03-04T18:55:39.005Z,43.67
2018-03-04T18:58:14.682Z,45.17
2018-03-04T19:06:50.201Z,46.10
2018-03-04T19:22:08.520Z,49.90
2018-03-04T19:24:43.857Z,45.93
2018-03-04T19:27:15.141Z,50.07
2018-03-04T19:32:25.913Z,46.30
2018-03-04T19:34:57.534Z,47.07
2018-03-04T19:37:27.356Z,44.03
2018-03-04T19:39:59.071Z,41.20
2018-03-04T19:42:27.873Z,49.07
2018-03-04T19:44:56.351Z,49.47
2018-03-04T19:47:30.557Z,47.30
2018-03-04T19:49:58.585Z,46.67
2018-03-04T19:52:26.498Z,49.33
2018-03-04T19:54:54.157Z,44.27
2018-03-04T19:57:22.027Z,43.13
2018-03-04T19:59:59.015Z,49.30
2018-03-04T20:02:34.994Z,46.43
2018-03-04T20:05:02.909Z,50.90
2018-03-04T20:07:31.773Z,48.90
2018-03-04T20:10:01.057Z,49.10
2018-03-04T20:12:29.548Z,48.50
2018-03-04T20:14:58.714Z,49.70
2018-03-04T20:17:27.622Z,45.10
2018-03-04T20:19:56.062Z,47.33
2018-03-04T20:22:24.770Z,47.30
2018-03-04T20:24:53.055Z,50.40
2018-03-04T20:27:24.793Z,49.27
2018-03-04T20:29:53.202Z,47.50
2018-03-04T20:32:25.447Z,50.47
2018-03-04T20:34:55.358Z,45.77
2018-03-04T20:37:24.141Z,47.43
2018-03-04T20:42:29.087Z,47.93
2018-03-04T20:44:59.131Z,49.37
2018-03-04T20:47:26.927Z,47.73
2018-03-04T20:49:54.662Z,50.90
2018-03-04T20:52:23.403Z,48.83
2018-03-04T20:54:51.403Z,48.20
2018-03-04T20:57:19.389Z,47.30
2018-03-04T20:59:47.124Z,48.60
2018-03-04T21:02:18.790Z,44.00
2018-03-04T21:04:46.578Z,48.30
2018-03-04T21:07:14.567Z,48.10
2018-03-04T21:09:42.646Z,51.50
2018-03-04T21:12:10.418Z,51.97
2018-03-04T21:14:38.072Z,45.13
2018-03-04T21:17:06.476Z,50.83
2018-03-04T21:19:36.016Z,46.27
2018-03-04T21:22:03.728Z,48.60
2018-03-04T21:24:31.447Z,46.93
2018-03-04T21:26:59.157Z,49.00
2018-03-04T21:29:27.525Z,57.50
2018-03-04T21:31:55.960Z,51.23
2018-03-04T21:34:24.824Z,52.07
2018-03-04T21:36:54.252Z,46.70
2018-03-04T21:39:22.097Z,49.03
2018-03-04T21:41:50.106Z,47.87
2018-03-04T21:44:17.822Z,45.53
2018-03-04T21:46:45.518Z,49.83
2018-03-04T21:49:13.812Z,48.27
2018-03-04T21:51:42.088Z,49.10
2018-03-04T21:54:09.889Z,50.77
2018-03-04T21:56:38.892Z,47.73
2018-03-04T21:59:10.109Z,49.67
2018-03-04T22:01:38.109Z,47.57
2018-03-04T22:04:06.224Z,50.10
2018-03-04T22:06:33.889Z,53.70
2018-03-04T22:09:01.974Z,52.93
2018-03-04T22:11:30.300Z,52.47
2018-03-04T22:13:58.127Z,51.60
2018-03-04T22:16:25.977Z,51.40
2018-03-04T22:18:53.583Z,49.97
2018-03-04T22:21:21.479Z,51.30
2018-03-04T22:23:52.563Z,52.00
2018-03-04T22:26:20.151Z,47.60
2018-03-04T22:28:48.692Z,51.90
2018-03-04T22:31:17.377Z,49.83
2018-03-04T22:33:49.014Z,46.27
2018-03-04T22:36:19.497Z,45.77
2018-03-04T22:38:47.150Z,50.53
2018-03-04T22:41:15.033Z,48.53
2018-03-04T22:43:42.608Z,45.20
2018-03-04T22:46:10.415Z,51.10
2018-03-04T22:48:38.222Z,50.13
2018-03-04T22:51:06.535Z,48.50
2018-03-04T22:53:34.246Z,46.43
2018-03-04T22:56:02.005Z,44.67
2018-03-04T22:58:29.672Z,49.10
2018-03-04T23:00:58.251Z,47.13
2018-03-04T23:03:27.272Z,47.77
2018-03-04T23:05:55.119Z,44.83
2018-03-04T23:08:24.106Z,48.47
2018-03-04T23:10:52.050Z,47.50
2018-03-04T23:13:20.234Z,52.67
2018-03-04T23:15:47.879Z,47.90
2018-03-04T23:18:20.600Z,49.43
2018-03-04T23:20:49.025Z,46.30
2018-03-04T23:23:18.145Z,45.93
2018-03-04T23:25:46.375Z,52.17
2018-03-04T23:28:14.150Z,52.30
2018-03-04T23:30:41.847Z,48.73
2018-03-04T23:33:12.254Z,50.70
2018-03-04T23:35:39.903Z,53.13
2018-03-04T23:38:07.588Z,51.10
2018-03-04T23:40:35.265Z,50.63
2018-03-04T23:43:03.031Z,52.93
2018-03-04T23:45:32.084Z,48.30
2018-03-04T23:48:01.283Z,50.40
2018-03-04T23:50:28.896Z,49.33
2018-03-04T23:52:56.825Z,48.70
2018-03-04T23:55:24.762Z,49.00
2018-03-04T23:57:52.479Z,50.53
